Station Historical Data
Daily Summary for March 25, 2012 Units:  Both    English   Metric
« Previous Day
Next Day »
Daily Weekly Monthly Yearly Custom
  High: Low: Average:
Temperature: 73.5 °F /  23.1 °C 45.6 °F /  7.6 °C 59.2 °F /  15.1 °C
Dew Point: 57.5 °F /  14.2 °C 44.5 °F /  6.9 °C 51.5 °F /  10.8 °C
Humidity: 96% 52% 78%
Wind Speed: 10.0mph /  16.1km/h - 2.5mph /  4km/h
Wind Gust: 12.0mph /  19.3km/h - -
Wind- - WSW
Pressure: 30.00 in /  1015.8 hPa 29.89 in /  1012.1 hPa -
Precipitation: 0.00 in /  0 mm    
Historical Graphs
 
 
Tabular Data for March 25, 2012
Time Temperature Dew Point Pressure Wind Wind Speed Wind Gust Humidity Rainfall Rate (Hourly) Conditions
00:00 50.9 °F /  10.5 °C 48.4 °F /  9.1 °C 29.90in /  1012.4hPa Calm     91% 0.00in /  0mm
00:01 50.9 °F /  10.5 °C 48.4 °F /  9.1 °C 29.90in /  1012.4hPa Calm     91% 0.00in /  0mm
00:06 50.5 °F /  10.3 °C 48.0 °F /  8.9 °C 29.90in /  1012.4hPa Calm     91% 0.00in /  0mm
00:11 50.2 °F /  10.1 °C 47.7 °F /  8.7 °C 29.90in /  1012.4hPa Calm     91% 0.00in /  0mm
00:16 50.1 °F /  10.1 °C 47.9 °F /  8.8 °C 29.90in /  1012.4hPa Calm     92% 0.00in /  0mm
00:21 49.9 °F /  9.9 °C 48.0 °F /  8.9 °C 29.90in /  1012.4hPa Calm     93% 0.00in /  0mm
00:27 49.9 °F /  9.9 °C 48.0 °F /  8.9 °C 29.90in /  1012.4hPa Calm     93% 0.00in /  0mm
00:32 49.9 °F /  9.9 °C 48.2 °F /  9 °C 29.90in /  1012.4hPa Calm     94% 0.00in /  0mm
00:37 49.9 °F /  9.9 °C 48.2 °F /  9 °C 29.90in /  1012.4hPa Calm     94% 0.00in /  0mm
00:42 49.7 °F /  9.8 °C 48.0 °F /  8.9 °C 29.90in /  1012.4hPa Calm     94% 0.00in /  0mm
00:47 49.4 °F /  9.7 °C 47.8 °F /  8.8 °C 29.90in /  1012.4hPa Calm     94% 0.00in /  0mm
00:52 49.1 °F /  9.5 °C 47.5 °F /  8.6 °C 29.90in /  1012.4hPa Calm     94% 0.00in /  0mm
00:57 48.6 °F /  9.2 °C 47.0 °F /  8.3 °C 29.90in /  1012.4hPa Calm     94% 0.00in /  0mm
01:00 48.6 °F /  9.2 °C 47.2 °F /  8.4 °C 29.90in /  1012.4hPa Calm     95% 0.00in /  0mm
01:02 48.6 °F /  9.2 °C 47.2 °F /  8.4 °C 29.90in /  1012.4hPa Calm     95% 0.00in /  0mm
01:07 48.6 °F /  9.2 °C 47.2 °F /  8.4 °C 29.90in /  1012.4hPa Calm     95% 0.00in /  0mm
01:12 48.6 °F /  9.2 °C 47.2 °F /  8.4 °C 29.90in /  1012.4hPa Calm     95% 0.00in /  0mm
01:17 48.4 °F /  9.1 °C 47.0 °F /  8.3 °C 29.90in /  1012.4hPa Calm     95% 0.00in /  0mm
01:22 48.4 °F /  9.1 °C 47.0 °F /  8.3 °C 29.90in /  1012.4hPa Calm     95% 0.00in /  0mm
01:27 48.5 °F /  9.2 °C 47.1 °F /  8.4 °C 29.90in /  1012.4hPa Calm     95% 0.00in /  0mm
01:30 48.5 °F /  9.2 °C 47.1 °F /  8.4 °C 29.90in /  1012.4hPa Calm     95% 0.00in /  0mm
01:32 48.5 °F /  9.2 °C 47.1 °F /  8.4 °C 29.90in /  1012.4hPa Calm     95% 0.00in /  0mm
01:38 48.6 °F /  9.2 °C 47.5 °F /  8.6 °C 29.90in /  1012.4hPa Calm     96% 0.00in /  0mm
01:43 48.4 °F /  9.1 °C 47.0 °F /  8.3 °C 29.90in /  1012.4hPa Calm     95% 0.00in /  0mm
01:48 48.1 °F /  8.9 °C 46.7 °F /  8.2 °C 29.90in /  1012.4hPa Calm     95% 0.00in /  0mm
01:53 47.7 °F /  8.7 °C 46.3 °F /  7.9 °C 29.90in /  1012.4hPa Calm     95% 0.00in /  0mm
01:58 47.3 °F /  8.5 °C 45.9 °F /  7.7 °C 29.90in /  1012.4hPa Calm     95% 0.00in /  0mm
02:00 47.1 °F /  8.4 °C 45.7 °F /  7.6 °C 29.90in /  1012.4hPa Calm     95% 0.00in /  0mm
02:03 47.1 °F /  8.4 °C 45.7 °F /  7.6 °C 29.90in /  1012.4hPa Calm     95% 0.00in /  0mm
02:08 47.3 °F /  8.5 °C 46.2 °F /  7.9 °C 29.90in /  1012.4hPa Calm     96% 0.00in /  0mm
02:13 47.7 °F /  8.7 °C 46.6 °F /  8.1 °C 29.90in /  1012.4hPa Calm     96% 0.00in /  0mm
02:18 48.0 °F /  8.9 °C 46.9 °F /  8.3 °C 29.90in /  1012.4hPa Calm     96% 0.00in /  0mm
02:23 48.0 °F /  8.9 °C 46.9 °F /  8.3 °C 29.90in /  1012.4hPa Calm     96% 0.00in /  0mm
02:28 48.0 °F /  8.9 °C 46.9 °F /  8.3 °C 29.90in /  1012.4hPa Calm   1.0mph /  1.6km/h 96% 0.00in /  0mm
02:30 48.0 °F /  8.9 °C 46.9 °F /  8.3 °C 29.90in /  1012.4hPa Calm     96% 0.00in /  0mm
02:33 48.1 °F /  8.9 °C 47.0 °F /  8.3 °C 29.90in /  1012.4hPa Calm     96% 0.00in /  0mm
02:38 48.2 °F /  9 °C 47.1 °F /  8.4 °C 29.91in /  1012.8hPa Calm     96% 0.00in /  0mm
02:43 48.0 °F /  8.9 °C 46.9 °F /  8.3 °C 29.91in /  1012.8hPa Calm     96% 0.00in /  0mm
02:48 47.7 °F /  8.7 °C 46.6 °F /  8.1 °C 29.91in /  1012.8hPa Calm     96% 0.00in /  0mm
02:53 47.6 °F /  8.7 °C 46.5 °F /  8.1 °C 29.91in /  1012.8hPa Calm     96% 0.00in /  0mm
02:58 47.7 °F /  8.7 °C 46.6 °F /  8.1 °C 29.91in /  1012.8hPa Calm     96% 0.00in /  0mm
03:00 47.8 °F /  8.8 °C 46.7 °F /  8.2 °C 29.91in /  1012.8hPa Calm     96% 0.00in /  0mm
03:03 48.0 °F /  8.9 °C 46.9 °F /  8.3 °C 29.91in /  1012.8hPa Calm     96% 0.00in /  0mm
03:08 48.1 °F /  8.9 °C 47.0 °F /  8.3 °C 29.91in /  1012.8hPa Calm     96% 0.00in /  0mm
03:13 48.4 °F /  9.1 °C 47.3 °F /  8.5 °C 29.91in /  1012.8hPa Calm     96% 0.00in /  0mm
03:18 48.7 °F /  9.3 °C 47.6 °F /  8.7 °C 29.90in /  1012.4hPa NNW 1.0mph /  1.6km/h 1.0mph /  1.6km/h 96% 0.00in /  0mm
03:23 48.9 °F /  9.4 °C 47.8 °F /  8.8 °C 29.90in /  1012.4hPa Calm   1.0mph /  1.6km/h 96% 0.00in /  0mm
03:28 48.8 °F /  9.3 °C 47.7 °F /  8.7 °C 29.90in /  1012.4hPa Calm   1.0mph /  1.6km/h 96% 0.00in /  0mm
03:30 48.7 °F /  9.3 °C 47.6 °F /  8.7 °C 29.90in /  1012.4hPa Calm   1.0mph /  1.6km/h 96% 0.00in /  0mm
03:33 48.6 °F /  9.2 °C 47.5 °F /  8.6 °C 29.90in /  1012.4hPa Calm     96% 0.00in /  0mm
03:38 48.5 °F /  9.2 °C 47.4 °F /  8.6 °C 29.90in /  1012.4hPa Calm     96% 0.00in /  0mm
03:44 48.2 °F /  9 °C 47.1 °F /  8.4 °C 29.90in /  1012.4hPa Calm     96% 0.00in /  0mm
03:49 47.8 °F /  8.8 °C 46.7 °F /  8.2 °C 29.90in /  1012.4hPa Calm     96% 0.00in /  0mm
03:54 47.5 °F /  8.6 °C 46.4 °F /  8 °C 29.90in /  1012.4hPa Calm     96% 0.00in /  0mm
03:59 47.5 °F /  8.6 °C 46.4 °F /  8 °C 29.90in /  1012.4hPa Calm     96% 0.00in /  0mm
04:00 47.4 °F /  8.6 °C 46.3 °F /  7.9 °C 29.90in /  1012.4hPa Calm     96% 0.00in /  0mm
04:04 47.5 °F /  8.6 °C 46.4 °F /  8 °C 29.90in /  1012.4hPa Calm     96% 0.00in /  0mm
04:09 47.6 °F /  8.7 °C 46.5 °F /  8.1 °C 29.90in /  1012.4hPa Calm     96% 0.00in /  0mm
04:14 47.5 °F /  8.6 °C 46.4 °F /  8 °C 29.90in /  1012.4hPa Calm     96% 0.00in /  0mm
04:19 47.2 °F /  8.4 °C 46.1 °F /  7.8 °C 29.90in /  1012.4hPa NNW 1.0mph /  1.6km/h 1.0mph /  1.6km/h 96% 0.00in /  0mm
04:24 47.2 °F /  8.4 °C 46.1 °F /  7.8 °C 29.90in /  1012.4hPa Calm   1.0mph /  1.6km/h 96% 0.00in /  0mm
04:29 47.0 °F /  8.3 °C 45.9 °F /  7.7 °C 29.90in /  1012.4hPa Calm     96% 0.00in /  0mm
04:30 46.9 °F /  8.3 °C 45.8 °F /  7.7 °C 29.90in /  1012.4hPa Calm     96% 0.00in /  0mm
04:34 46.8 °F /  8.2 °C 45.7 °F /  7.6 °C 29.90in /  1012.4hPa Calm     96% 0.00in /  0mm
04:39 46.8 °F /  8.2 °C 45.7 °F /  7.6 °C 29.89in /  1012.1hPa Calm     96% 0.00in /  0mm
04:44 46.9 °F /  8.3 °C 45.8 °F /  7.7 °C 29.90in /  1012.4hPa Calm     96% 0.00in /  0mm
04:49 46.9 °F /  8.3 °C 45.8 °F /  7.7 °C 29.90in /  1012.4hPa Calm     96% 0.00in /  0mm
04:54 46.3 °F /  7.9 °C 45.2 °F /  7.3 °C 29.90in /  1012.4hPa Calm     96% 0.00in /  0mm
04:59 45.6 °F /  7.6 °C 44.5 °F /  6.9 °C 29.90in /  1012.4hPa Calm     96% 0.00in /  0mm
05:00 45.6 °F /  7.6 °C 44.5 °F /  6.9 °C 29.90in /  1012.4hPa Calm     96% 0.00in /  0mm
05:05 46.0 °F /  7.8 °C 44.9 °F /  7.2 °C 29.90in /  1012.4hPa Calm     96% 0.00in /  0mm
05:10 46.0 °F /  7.8 °C 44.9 °F /  7.2 °C 29.91in /  1012.8hPa Calm     96% 0.00in /  0mm
05:15 46.0 °F /  7.8 °C 44.9 °F /  7.2 °C 29.91in /  1012.8hPa Calm     96% 0.00in /  0mm
05:20 46.3 °F /  7.9 °C 45.2 °F /  7.3 °C 29.91in /  1012.8hPa Calm     96% 0.00in /  0mm
05:25 46.4 °F /  8 °C 45.3 °F /  7.4 °C 29.91in /  1012.8hPa Calm     96% 0.00in /  0mm
05:30 46.5 °F /  8.1 °C 45.4 °F /  7.4 °C 29.91in /  1012.8hPa Calm     96% 0.00in /  0mm
05:35 46.7 °F /  8.2 °C 45.6 °F /  7.6 °C 29.91in /  1012.8hPa Calm     96% 0.00in /  0mm
05:40 46.5 °F /  8.1 °C 45.4 °F /  7.4 °C 29.91in /  1012.8hPa Calm     96% 0.00in /  0mm
05:45 46.3 °F /  7.9 °C 45.2 °F /  7.3 °C 29.91in /  1012.8hPa Calm     96% 0.00in /  0mm
05:47 46.2 °F /  7.9 °C 45.1 °F /  7.3 °C 29.91in /  1012.8hPa Calm     96% 0.00in /  0mm
05:52 46.3 °F /  7.9 °C 45.2 °F /  7.3 °C 29.91in /  1012.8hPa Calm     96% 0.00in /  0mm
05:57 46.4 °F /  8 °C 45.3 °F /  7.4 °C 29.91in /  1012.8hPa Calm     96% 0.00in /  0mm
06:02 46.7 °F /  8.2 °C 45.6 °F /  7.6 °C 29.91in /  1012.8hPa Calm     96% 0.00in /  0mm
06:07 46.9 °F /  8.3 °C 45.8 °F /  7.7 °C 29.91in /  1012.8hPa Calm     96% 0.00in /  0mm
06:12 47.1 °F /  8.4 °C 46.0 °F /  7.8 °C 29.91in /  1012.8hPa Calm     96% 0.00in /  0mm
06:17 47.3 °F /  8.5 °C 46.2 °F /  7.9 °C 29.91in /  1012.8hPa Calm     96% 0.00in /  0mm
06:22 47.7 °F /  8.7 °C 46.6 °F /  8.1 °C 29.91in /  1012.8hPa Calm     96% 0.00in /  0mm
06:27 47.8 °F /  8.8 °C 46.7 °F /  8.2 °C 29.91in /  1012.8hPa Calm     96% 0.00in /  0mm
06:30 47.9 °F /  8.8 °C 46.8 °F /  8.2 °C 29.91in /  1012.8hPa Calm     96% 0.00in /  0mm
06:32 48.0 °F /  8.9 °C 46.9 °F /  8.3 °C 29.91in /  1012.8hPa Calm     96% 0.00in /  0mm
06:37 48.2 °F /  9 °C 47.1 °F /  8.4 °C 29.92in /  1013.1hPa Calm     96% 0.00in /  0mm
06:42 48.3 °F /  9.1 °C 47.2 °F /  8.4 °C 29.91in /  1012.8hPa Calm     96% 0.00in /  0mm
06:47 48.4 °F /  9.1 °C 47.3 °F /  8.5 °C 29.92in /  1013.1hPa Calm     96% 0.00in /  0mm
06:52 48.4 °F /  9.1 °C 47.3 °F /  8.5 °C 29.92in /  1013.1hPa Calm     96% 0.00in /  0mm
06:57 48.4 °F /  9.1 °C 47.3 °F /  8.5 °C 29.92in /  1013.1hPa Calm     96% 0.00in /  0mm
07:02 48.4 °F /  9.1 °C 47.3 °F /  8.5 °C 29.92in /  1013.1hPa Calm     96% 0.00in /  0mm
07:12 48.4 °F /  9.1 °C 47.3 °F /  8.5 °C 29.92in /  1013.1hPa Calm     96% 0.00in /  0mm
07:17 48.5 °F /  9.2 °C 47.4 °F /  8.6 °C 29.92in /  1013.1hPa Calm     96% 0.00in /  0mm
07:22 48.5 °F /  9.2 °C 47.4 °F /  8.6 °C 29.92in /  1013.1hPa Calm     96% 0.00in /  0mm
07:27 48.7 °F /  9.3 °C 47.6 °F /  8.7 °C 29.91in /  1012.8hPa Calm     96% 0.00in /  0mm
07:32 49.1 °F /  9.5 °C 48.0 °F /  8.9 °C 29.92in /  1013.1hPa WSW 1.0mph /  1.6km/h 2.0mph /  3.2km/h 96% 0.00in /  0mm
07:37 49.2 °F /  9.6 °C 48.1 °F /  8.9 °C 29.92in /  1013.1hPa Calm     96% 0.00in /  0mm
07:42 49.1 °F /  9.5 °C 48.0 °F /  8.9 °C 29.92in /  1013.1hPa Calm   1.0mph /  1.6km/h 96% 0.00in /  0mm
07:47 49.1 °F /  9.5 °C 48.0 °F /  8.9 °C 29.92in /  1013.1hPa WSW 1.0mph /  1.6km/h 1.0mph /  1.6km/h 96% 0.00in /  0mm
07:52 49.1 °F /  9.5 °C 48.0 °F /  8.9 °C 29.93in /  1013.4hPa Calm   1.0mph /  1.6km/h 96% 0.00in /  0mm
07:54 49.1 °F /  9.5 °C 48.0 °F /  8.9 °C 29.93in /  1013.4hPa Calm   1.0mph /  1.6km/h 96% 0.00in /  0mm
07:59 49.1 °F /  9.5 °C 48.0 °F /  8.9 °C 29.93in /  1013.4hPa Calm     96% 0.00in /  0mm
08:04 49.2 °F /  9.6 °C 48.1 °F /  8.9 °C 29.93in /  1013.4hPa Calm   1.0mph /  1.6km/h 96% 0.00in /  0mm
08:05 49.3 °F /  9.6 °C 48.2 °F /  9 °C 29.93in /  1013.4hPa Calm   1.0mph /  1.6km/h 96% 0.00in /  0mm
08:10 49.5 °F /  9.7 °C 48.4 °F /  9.1 °C 29.93in /  1013.4hPa Calm     96% 0.00in /  0mm
08:15 49.8 °F /  9.9 °C 48.7 °F /  9.3 °C 29.94in /  1013.8hPa Calm     96% 0.00in /  0mm
08:20 50.0 °F /  10 °C 48.9 °F /  9.4 °C 29.94in /  1013.8hPa Calm     96% 0.00in /  0mm
08:25 50.2 °F /  10.1 °C 49.1 °F /  9.5 °C 29.94in /  1013.8hPa Calm     96% 0.00in /  0mm
08:30 50.5 °F /  10.3 °C 49.4 °F /  9.7 °C 29.94in /  1013.8hPa Calm     96% 0.00in /  0mm
08:35 50.8 °F /  10.4 °C 49.7 °F /  9.8 °C 29.94in /  1013.8hPa Calm     96% 0.00in /  0mm
08:40 51.1 °F /  10.6 °C 49.7 °F /  9.8 °C 29.94in /  1013.8hPa West 1.0mph /  1.6km/h 2.0mph /  3.2km/h 95% 0.00in /  0mm
08:45 51.4 °F /  10.8 °C 49.7 °F /  9.8 °C 29.94in /  1013.8hPa West 1.0mph /  1.6km/h 1.0mph /  1.6km/h 94% 0.00in /  0mm
08:46 51.5 °F /  10.8 °C 49.8 °F /  9.9 °C 29.94in /  1013.8hPa West 1.0mph /  1.6km/h 1.0mph /  1.6km/h 94% 0.00in /  0mm
08:51 51.7 °F /  10.9 °C 49.8 °F /  9.9 °C 29.94in /  1013.8hPa WNW 2.0mph /  3.2km/h 2.0mph /  3.2km/h 93% 0.00in /  0mm
08:56 51.9 °F /  11.1 °C 49.9 °F /  9.9 °C 29.95in /  1014.1hPa WNW 2.0mph /  3.2km/h 3.0mph /  4.8km/h 93% 0.00in /  0mm
09:01 52.0 °F /  11.1 °C 49.8 °F /  9.9 °C 29.94in /  1013.8hPa West 2.0mph /  3.2km/h 2.0mph /  3.2km/h 92% 0.00in /  0mm
09:06 52.5 °F /  11.4 °C 50.2 °F /  10.1 °C 29.94in /  1013.8hPa WNW 1.0mph /  1.6km/h 3.0mph /  4.8km/h 92% 0.00in /  0mm
09:11 52.8 °F /  11.6 °C 50.2 °F /  10.1 °C 29.94in /  1013.8hPa WNW 2.0mph /  3.2km/h 3.0mph /  4.8km/h 91% 0.00in /  0mm
09:16 53.1 °F /  11.7 °C 50.0 °F /  10 °C 29.94in /  1013.8hPa NW 2.0mph /  3.2km/h 4.0mph /  6.4km/h 89% 0.00in /  0mm
09:21 53.4 °F /  11.9 °C 50.2 °F /  10.1 °C 29.95in /  1014.1hPa WNW 2.0mph /  3.2km/h 3.0mph /  4.8km/h 89% 0.00in /  0mm
09:26 54.0 °F /  12.2 °C 50.5 °F /  10.3 °C 29.95in /  1014.1hPa WNW 2.0mph /  3.2km/h 3.0mph /  4.8km/h 88% 0.00in /  0mm
09:31 54.6 °F /  12.6 °C 51.1 °F /  10.6 °C 29.95in /  1014.1hPa WNW 4.0mph /  6.4km/h 4.0mph /  6.4km/h 88% 0.00in /  0mm
09:36 54.9 °F /  12.7 °C 51.1 °F /  10.6 °C 29.95in /  1014.1hPa WNW 2.0mph /  3.2km/h 4.0mph /  6.4km/h 87% 0.00in /  0mm
09:41 55.1 °F /  12.8 °C 51.0 °F /  10.6 °C 29.95in /  1014.1hPa WNW 2.0mph /  3.2km/h 3.0mph /  4.8km/h 86% 0.00in /  0mm
09:46 55.6 °F /  13.1 °C 51.8 °F /  11 °C 29.95in /  1014.1hPa WNW 1.0mph /  1.6km/h 2.0mph /  3.2km/h 87% 0.00in /  0mm
09:51 55.9 °F /  13.3 °C 51.8 °F /  11 °C 29.95in /  1014.1hPa WNW 1.0mph /  1.6km/h 2.0mph /  3.2km/h 86% 0.00in /  0mm
09:56 56.3 °F /  13.5 °C 51.9 °F /  11.1 °C 29.95in /  1014.1hPa WNW 2.0mph /  3.2km/h 3.0mph /  4.8km/h 85% 0.00in /  0mm
10:01 56.8 °F /  13.8 °C 52.0 °F /  11.1 °C 29.95in /  1014.1hPa West 1.0mph /  1.6km/h 3.0mph /  4.8km/h 84% 0.00in /  0mm
10:06 57.4 °F /  14.1 °C 52.3 °F /  11.3 °C 29.96in /  1014.4hPa NW 1.0mph /  1.6km/h 3.0mph /  4.8km/h 83% 0.00in /  0mm
10:11 58.2 °F /  14.6 °C 53.4 °F /  11.9 °C 29.96in /  1014.4hPa NNE 2.0mph /  3.2km/h 2.0mph /  3.2km/h 84% 0.00in /  0mm
10:16 58.9 °F /  14.9 °C 52.8 °F /  11.6 °C 29.96in /  1014.4hPa NNW 2.0mph /  3.2km/h 3.0mph /  4.8km/h 80% 0.00in /  0mm
10:21 59.4 °F /  15.2 °C 52.9 °F /  11.6 °C 29.96in /  1014.4hPa NW 2.0mph /  3.2km/h 4.0mph /  6.4km/h 79% 0.00in /  0mm
10:26 59.5 °F /  15.3 °C 53.0 °F /  11.7 °C 29.96in /  1014.4hPa NNW 3.0mph /  4.8km/h 3.0mph /  4.8km/h 79% 0.00in /  0mm
10:32 59.8 °F /  15.4 °C 52.6 °F /  11.4 °C 29.96in /  1014.4hPa NNW 3.0mph /  4.8km/h 3.0mph /  4.8km/h 77% 0.00in /  0mm
10:37 60.3 °F /  15.7 °C 53.4 °F /  11.9 °C 29.96in /  1014.4hPa NW 4.0mph /  6.4km/h 4.0mph /  6.4km/h 78% 0.00in /  0mm
10:42 60.9 °F /  16.1 °C 52.6 °F /  11.4 °C 29.96in /  1014.4hPa NW 1.0mph /  1.6km/h 5.0mph /  8km/h 74% 0.00in /  0mm
10:47 61.5 °F /  16.4 °C 52.8 °F /  11.6 °C 29.96in /  1014.4hPa WNW 2.0mph /  3.2km/h 5.0mph /  8km/h 73% 0.00in /  0mm
10:52 61.9 °F /  16.6 °C 52.4 °F /  11.3 °C 29.96in /  1014.4hPa WNW 7.0mph /  11.3km/h 7.0mph /  11.3km/h 71% 0.00in /  0mm
10:57 62.3 °F /  16.8 °C 52.4 °F /  11.3 °C 29.96in /  1014.4hPa NNW 4.0mph /  6.4km/h 6.0mph /  9.7km/h 70% 0.00in /  0mm
11:02 63.0 °F /  17.2 °C 53.8 °F /  12.1 °C 29.97in /  1014.8hPa NNE 4.0mph /  6.4km/h 5.0mph /  8km/h 72% 0.00in /  0mm
11:07 63.7 °F /  17.6 °C 54.5 °F /  12.5 °C 29.97in /  1014.8hPa WNW 3.0mph /  4.8km/h 4.0mph /  6.4km/h 72% 0.00in /  0mm
11:12 64.2 °F /  17.9 °C 55.0 °F /  12.8 °C 29.97in /  1014.8hPa NNE 4.0mph /  6.4km/h 5.0mph /  8km/h 72% 0.00in /  0mm
11:17 64.6 °F /  18.1 °C 55.4 °F /  13 °C 29.96in /  1014.4hPa WNW 4.0mph /  6.4km/h 6.0mph /  9.7km/h 72% 0.00in /  0mm
11:22 64.8 °F /  18.2 °C 54.4 °F /  12.4 °C 29.96in /  1014.4hPa WNW 6.0mph /  9.7km/h 9.0mph /  14.5km/h 69% 0.00in /  0mm
11:27 64.8 °F /  18.2 °C 54.0 °F /  12.2 °C 29.97in /  1014.8hPa NW 3.0mph /  4.8km/h 9.0mph /  14.5km/h 68% 0.00in /  0mm
11:32 65.2 °F /  18.4 °C 55.2 °F /  12.9 °C 29.96in /  1014.4hPa NW 6.0mph /  9.7km/h 9.0mph /  14.5km/h 70% 0.00in /  0mm
11:37 65.6 °F /  18.7 °C 55.2 °F /  12.9 °C 29.97in /  1014.8hPa NW 8.0mph /  12.9km/h 10.0mph /  16.1km/h 69% 0.00in /  0mm
11:42 65.7 °F /  18.7 °C 55.3 °F /  12.9 °C 29.96in /  1014.4hPa NW 6.0mph /  9.7km/h 9.0mph /  14.5km/h 69% 0.00in /  0mm
11:47 66.1 °F /  18.9 °C 55.2 °F /  12.9 °C 29.96in /  1014.4hPa WSW 10.0mph /  16.1km/h 10.0mph /  16.1km/h 68% 0.00in /  0mm
11:52 66.2 °F /  19 °C 55.7 °F /  13.2 °C 29.96in /  1014.4hPa NNW 6.0mph /  9.7km/h 8.0mph /  12.9km/h 69% 0.00in /  0mm
11:57 66.3 °F /  19.1 °C 55.0 °F /  12.8 °C 29.96in /  1014.4hPa NW 6.0mph /  9.7km/h 10.0mph /  16.1km/h 67% 0.00in /  0mm
12:02 66.6 °F /  19.2 °C 55.7 °F /  13.2 °C 29.96in /  1014.4hPa NW 5.0mph /  8km/h 6.0mph /  9.7km/h 68% 0.00in /  0mm
12:07 66.7 °F /  19.3 °C 56.2 °F /  13.4 °C 29.96in /  1014.4hPa NW 5.0mph /  8km/h 7.0mph /  11.3km/h 69% 0.00in /  0mm
12:12 66.2 °F /  19 °C 54.5 °F /  12.5 °C 29.96in /  1014.4hPa WNW 6.0mph /  9.7km/h 9.0mph /  14.5km/h 66% 0.00in /  0mm
12:17 66.0 °F /  18.9 °C 55.5 °F /  13.1 °C 29.95in /  1014.1hPa WSW 3.0mph /  4.8km/h 5.0mph /  8km/h 69% 0.00in /  0mm
12:22 67.1 °F /  19.5 °C 55.4 °F /  13 °C 29.95in /  1014.1hPa West 5.0mph /  8km/h 7.0mph /  11.3km/h 66% 0.00in /  0mm
12:27 66.9 °F /  19.4 °C 54.8 °F /  12.7 °C 29.95in /  1014.1hPa WNW 4.0mph /  6.4km/h 8.0mph /  12.9km/h 65% 0.00in /  0mm
12:33 67.5 °F /  19.7 °C 57.0 °F /  13.9 °C 29.95in /  1014.1hPa WSW 3.0mph /  4.8km/h 5.0mph /  8km/h 69% 0.00in /  0mm
12:38 67.6 °F /  19.8 °C 55.4 °F /  13 °C 29.95in /  1014.1hPa NNW 3.0mph /  4.8km/h 3.0mph /  4.8km/h 65% 0.00in /  0mm
12:40 67.6 °F /  19.8 °C 56.3 °F /  13.5 °C 29.95in /  1014.1hPa NNE 4.0mph /  6.4km/h 5.0mph /  8km/h 67% 0.00in /  0mm
12:45 68.1 °F /  20.1 °C 56.7 °F /  13.7 °C 29.95in /  1014.1hPa West 3.0mph /  4.8km/h 6.0mph /  9.7km/h 67% 0.00in /  0mm
12:50 68.6 °F /  20.3 °C 55.5 °F /  13.1 °C 29.95in /  1014.1hPa WNW 3.0mph /  4.8km/h 7.0mph /  11.3km/h 63% 0.00in /  0mm
12:55 68.5 °F /  20.3 °C 55.9 °F /  13.3 °C 29.95in /  1014.1hPa West 6.0mph /  9.7km/h 8.0mph /  12.9km/h 64% 0.00in /  0mm
13:01 68.8 °F /  20.4 °C 55.7 °F /  13.2 °C 29.95in /  1014.1hPa NW 3.0mph /  4.8km/h 7.0mph /  11.3km/h 63% 0.00in /  0mm
13:06 69.2 °F /  20.7 °C 54.3 °F /  12.4 °C 29.95in /  1014.1hPa WSW 5.0mph /  8km/h 6.0mph /  9.7km/h 59% 0.00in /  0mm
13:11 69.5 °F /  20.8 °C 56.8 °F /  13.8 °C 29.94in /  1013.8hPa West 6.0mph /  9.7km/h 8.0mph /  12.9km/h 64% 0.00in /  0mm
13:16 69.1 °F /  20.6 °C 55.1 °F /  12.8 °C 29.94in /  1013.8hPa NNW 3.0mph /  4.8km/h 6.0mph /  9.7km/h 61% 0.00in /  0mm
13:21 68.3 °F /  20.2 °C 55.2 °F /  12.9 °C 29.94in /  1013.8hPa WNW 4.0mph /  6.4km/h 5.0mph /  8km/h 63% 0.00in /  0mm
13:27 69.1 °F /  20.6 °C 55.1 °F /  12.8 °C 29.94in /  1013.8hPa Calm   7.0mph /  11.3km/h 61% 0.00in /  0mm
13:32 69.4 °F /  20.8 °C 55.4 °F /  13 °C 29.94in /  1013.8hPa NW 5.0mph /  8km/h 7.0mph /  11.3km/h 61% 0.00in /  0mm
13:37 69.9 °F /  21.1 °C 56.8 °F /  13.8 °C 29.94in /  1013.8hPa NNW 7.0mph /  11.3km/h 7.0mph /  11.3km/h 63% 0.00in /  0mm
13:42 69.3 °F /  20.7 °C 55.7 °F /  13.2 °C 29.94in /  1013.8hPa NW 6.0mph /  9.7km/h 8.0mph /  12.9km/h 62% 0.00in /  0mm
13:47 69.5 °F /  20.8 °C 55.0 °F /  12.8 °C 29.94in /  1013.8hPa WNW 5.0mph /  8km/h 8.0mph /  12.9km/h 60% 0.00in /  0mm
13:52 70.2 °F /  21.2 °C 54.8 °F /  12.7 °C 29.94in /  1013.8hPa NNE 3.0mph /  4.8km/h 9.0mph /  14.5km/h 58% 0.00in /  0mm
13:57 70.4 °F /  21.3 °C 55.9 °F /  13.3 °C 29.94in /  1013.8hPa North 6.0mph /  9.7km/h 8.0mph /  12.9km/h 60% 0.00in /  0mm
14:02 70.6 °F /  21.4 °C 56.1 °F /  13.4 °C 29.94in /  1013.8hPa North 4.0mph /  6.4km/h 10.0mph /  16.1km/h 60% 0.00in /  0mm
14:07 70.6 °F /  21.4 °C 56.5 °F /  13.6 °C 29.94in /  1013.8hPa NNE 6.0mph /  9.7km/h 9.0mph /  14.5km/h 61% 0.00in /  0mm
14:12 70.9 °F /  21.6 °C 55.9 °F /  13.3 °C 29.94in /  1013.8hPa NNW 5.0mph /  8km/h 8.0mph /  12.9km/h 59% 0.00in /  0mm
14:17 71.4 °F /  21.9 °C 56.3 °F /  13.5 °C 29.93in /  1013.4hPa NW 8.0mph /  12.9km/h 9.0mph /  14.5km/h 59% 0.00in /  0mm
14:22 71.4 °F /  21.9 °C 56.3 °F /  13.5 °C 29.93in /  1013.4hPa North 5.0mph /  8km/h 7.0mph /  11.3km/h 59% 0.00in /  0mm
14:27 70.7 °F /  21.5 °C 54.2 °F /  12.3 °C 29.93in /  1013.4hPa North 4.0mph /  6.4km/h 5.0mph /  8km/h 56% 0.00in /  0mm
14:32 70.6 °F /  21.4 °C 56.1 °F /  13.4 °C 29.93in /  1013.4hPa WNW 6.0mph /  9.7km/h 6.0mph /  9.7km/h 60% 0.00in /  0mm
14:38 70.5 °F /  21.4 °C 55.5 °F /  13.1 °C 29.93in /  1013.4hPa NW 4.0mph /  6.4km/h 7.0mph /  11.3km/h 59% 0.00in /  0mm
14:43 70.1 °F /  21.2 °C 55.6 °F /  13.1 °C 29.93in /  1013.4hPa North 5.0mph /  8km/h 6.0mph /  9.7km/h 60% 0.00in /  0mm
14:48 69.9 °F /  21.1 °C 54.9 °F /  12.7 °C 29.93in /  1013.4hPa NNW 4.0mph /  6.4km/h 8.0mph /  12.9km/h 59% 0.00in /  0mm
14:53 70.1 °F /  21.2 °C 56.0 °F /  13.3 °C 29.93in /  1013.4hPa NNE 7.0mph /  11.3km/h 7.0mph /  11.3km/h 61% 0.00in /  0mm
14:55 70.0 °F /  21.1 °C 54.1 °F /  12.3 °C 29.93in /  1013.4hPa NW 4.0mph /  6.4km/h 9.0mph /  14.5km/h 57% 0.00in /  0mm
15:00 69.9 °F /  21.1 °C 55.4 °F /  13 °C 29.92in /  1013.1hPa NNW 5.0mph /  8km/h 5.0mph /  8km/h 60% 0.00in /  0mm
15:05 69.8 °F /  21 °C 54.8 °F /  12.7 °C 29.92in /  1013.1hPa WNW 5.0mph /  8km/h 6.0mph /  9.7km/h 59% 0.00in /  0mm
15:10 70.2 °F /  21.2 °C 55.7 °F /  13.2 °C 29.92in /  1013.1hPa NNW 3.0mph /  4.8km/h 8.0mph /  12.9km/h 60% 0.00in /  0mm
15:15 71.1 °F /  21.7 °C 55.6 °F /  13.1 °C 29.92in /  1013.1hPa WNW 6.0mph /  9.7km/h 7.0mph /  11.3km/h 58% 0.00in /  0mm
15:20 71.6 °F /  22 °C 56.1 °F /  13.4 °C 29.92in /  1013.1hPa North 4.0mph /  6.4km/h 6.0mph /  9.7km/h 58% 0.00in /  0mm
15:25 71.6 °F /  22 °C 55.1 °F /  12.8 °C 29.92in /  1013.1hPa NNW 3.0mph /  4.8km/h 8.0mph /  12.9km/h 56% 0.00in /  0mm
15:30 72.1 °F /  22.3 °C 57.0 °F /  13.9 °C 29.92in /  1013.1hPa NNW 6.0mph /  9.7km/h 6.0mph /  9.7km/h 59% 0.00in /  0mm
15:35 72.1 °F /  22.3 °C 55.6 °F /  13.1 °C 29.92in /  1013.1hPa WNW 4.0mph /  6.4km/h 9.0mph /  14.5km/h 56% 0.00in /  0mm
15:36 72.1 °F /  22.3 °C 55.1 °F /  12.8 °C 29.91in /  1012.8hPa West 6.0mph /  9.7km/h 11.0mph /  17.7km/h 55% 0.00in /  0mm
15:41 71.7 °F /  22.1 °C 55.7 °F /  13.2 °C 29.91in /  1012.8hPa NW 5.0mph /  8km/h 7.0mph /  11.3km/h 57% 0.00in /  0mm
15:47 71.4 °F /  21.9 °C 55.4 °F /  13 °C 29.91in /  1012.8hPa NNW 5.0mph /  8km/h 8.0mph /  12.9km/h 57% 0.00in /  0mm
15:52 71.3 °F /  21.8 °C 55.3 °F /  12.9 °C 29.91in /  1012.8hPa NW 2.0mph /  3.2km/h 3.0mph /  4.8km/h 57% 0.00in /  0mm
15:57 72.6 °F /  22.6 °C 56.0 °F /  13.3 °C 29.91in /  1012.8hPa WNW 4.0mph /  6.4km/h 7.0mph /  11.3km/h 56% 0.00in /  0mm
16:02 72.6 °F /  22.6 °C 54.5 °F /  12.5 °C 29.91in /  1012.8hPa WNW 5.0mph /  8km/h 9.0mph /  14.5km/h 53% 0.00in /  0mm
16:07 72.3 °F /  22.4 °C 54.2 °F /  12.3 °C 29.91in /  1012.8hPa NNW 3.0mph /  4.8km/h 8.0mph /  12.9km/h 53% 0.00in /  0mm
16:08 72.2 °F /  22.3 °C 54.1 °F /  12.3 °C 29.91in /  1012.8hPa NW 3.0mph /  4.8km/h 8.0mph /  12.9km/h 53% 0.00in /  0mm
16:13 72.6 °F /  22.6 °C 57.5 °F /  14.2 °C 29.91in /  1012.8hPa NNW 4.0mph /  6.4km/h 12.0mph /  19.3km/h 59% 0.00in /  0mm
16:18 72.3 °F /  22.4 °C 53.7 °F /  12.1 °C 29.91in /  1012.8hPa NW 6.0mph /  9.7km/h 12.0mph /  19.3km/h 52% 0.00in /  0mm
16:23 72.1 °F /  22.3 °C 55.1 °F /  12.8 °C 29.91in /  1012.8hPa NNE 6.0mph /  9.7km/h 10.0mph /  16.1km/h 55% 0.00in /  0mm
16:28 72.7 °F /  22.6 °C 55.6 °F /  13.1 °C 29.91in /  1012.8hPa NW 4.0mph /  6.4km/h 11.0mph /  17.7km/h 55% 0.00in /  0mm
16:34 73.2 °F /  22.9 °C 56.6 °F /  13.7 °C 29.91in /  1012.8hPa WNW 3.0mph /  4.8km/h 7.0mph /  11.3km/h 56% 0.00in /  0mm
16:39 72.7 °F /  22.6 °C 54.6 °F /  12.6 °C 29.91in /  1012.8hPa NE 4.0mph /  6.4km/h 5.0mph /  8km/h 53% 0.00in /  0mm
16:44 72.0 °F /  22.2 °C 54.5 °F /  12.5 °C 29.91in /  1012.8hPa NW 6.0mph /  9.7km/h 8.0mph /  12.9km/h 54% 0.00in /  0mm
16:49 72.0 °F /  22.2 °C 56.0 °F /  13.3 °C 29.91in /  1012.8hPa WNW 6.0mph /  9.7km/h 10.0mph /  16.1km/h 57% 0.00in /  0mm
16:54 73.2 °F /  22.9 °C 55.6 °F /  13.1 °C 29.91in /  1012.8hPa NW 9.0mph /  14.5km/h 9.0mph /  14.5km/h 54% 0.00in /  0mm
16:59 72.7 °F /  22.6 °C 54.1 °F /  12.3 °C 29.91in /  1012.8hPa North 10.0mph /  16.1km/h 11.0mph /  17.7km/h 52% 0.00in /  0mm
17:04 71.8 °F /  22.1 °C 54.3 °F /  12.4 °C 29.91in /  1012.8hPa NW 8.0mph /  12.9km/h 9.0mph /  14.5km/h 54% 0.00in /  0mm
17:09 72.0 °F /  22.2 °C 55.5 °F /  13.1 °C 29.91in /  1012.8hPa NW 7.0mph /  11.3km/h 10.0mph /  16.1km/h 56% 0.00in /  0mm
17:14 72.6 °F /  22.6 °C 55.0 °F /  12.8 °C 29.91in /  1012.8hPa NNE 7.0mph /  11.3km/h 10.0mph /  16.1km/h 54% 0.00in /  0mm
17:19 73.0 °F /  22.8 °C 55.4 °F /  13 °C 29.91in /  1012.8hPa NNW 6.0mph /  9.7km/h 10.0mph /  16.1km/h 54% 0.00in /  0mm
17:24 73.5 °F /  23.1 °C 56.9 °F /  13.8 °C 29.91in /  1012.8hPa NNW 9.0mph /  14.5km/h 9.0mph /  14.5km/h 56% 0.00in /  0mm
17:29 72.7 °F /  22.6 °C 54.6 °F /  12.6 °C 29.91in /  1012.8hPa NW 7.0mph /  11.3km/h 10.0mph /  16.1km/h 53% 0.00in /  0mm
17:34 72.6 °F /  22.6 °C 55.0 °F /  12.8 °C 29.91in /  1012.8hPa NNW 6.0mph /  9.7km/h 6.0mph /  9.7km/h 54% 0.00in /  0mm
17:39 72.0 °F /  22.2 °C 55.0 °F /  12.8 °C 29.91in /  1012.8hPa North 5.0mph /  8km/h 7.0mph /  11.3km/h 55% 0.00in /  0mm
17:44 71.3 °F /  21.8 °C 54.8 °F /  12.7 °C 29.91in /  1012.8hPa NNW 3.0mph /  4.8km/h 6.0mph /  9.7km/h 56% 0.00in /  0mm
17:49 70.8 °F /  21.6 °C 54.8 °F /  12.7 °C 29.91in /  1012.8hPa North 8.0mph /  12.9km/h 8.0mph /  12.9km/h 57% 0.00in /  0mm
17:54 71.4 °F /  21.9 °C 55.4 °F /  13 °C 29.91in /  1012.8hPa North 7.0mph /  11.3km/h 7.0mph /  11.3km/h 57% 0.00in /  0mm
17:59 72.3 °F /  22.4 °C 55.2 °F /  12.9 °C 29.91in /  1012.8hPa NNE 8.0mph /  12.9km/h 10.0mph /  16.1km/h 55% 0.00in /  0mm
18:04 72.9 °F /  22.7 °C 55.8 °F /  13.2 °C 29.91in /  1012.8hPa NNE 5.0mph /  8km/h 11.0mph /  17.7km/h 55% 0.00in /  0mm
18:09 72.7 °F /  22.6 °C 56.1 °F /  13.4 °C 29.91in /  1012.8hPa North 5.0mph /  8km/h 8.0mph /  12.9km/h 56% 0.00in /  0mm
18:14 72.9 °F /  22.7 °C 56.3 °F /  13.5 °C 29.91in /  1012.8hPa NE 8.0mph /  12.9km/h 8.0mph /  12.9km/h 56% 0.00in /  0mm
18:19 72.6 °F /  22.6 °C 55.5 °F /  13.1 °C 29.91in /  1012.8hPa North 7.0mph /  11.3km/h 10.0mph /  16.1km/h 55% 0.00in /  0mm
18:24 71.8 °F /  22.1 °C 55.3 °F /  12.9 °C 29.92in /  1013.1hPa North 4.0mph /  6.4km/h 8.0mph /  12.9km/h 56% 0.00in /  0mm
18:29 71.4 °F /  21.9 °C 55.4 °F /  13 °C 29.92in /  1013.1hPa NNE 6.0mph /  9.7km/h 8.0mph /  12.9km/h 57% 0.00in /  0mm
18:34 71.6 °F /  22 °C 56.1 °F /  13.4 °C 29.92in /  1013.1hPa NNE 6.0mph /  9.7km/h 8.0mph /  12.9km/h 58% 0.00in /  0mm
18:39 71.7 °F /  22.1 °C 55.7 °F /  13.2 °C 29.92in /  1013.1hPa NE 9.0mph /  14.5km/h 9.0mph /  14.5km/h 57% 0.00in /  0mm
18:45 71.3 °F /  21.8 °C 55.3 °F /  12.9 °C 29.92in /  1013.1hPa NNE 6.0mph /  9.7km/h 10.0mph /  16.1km/h 57% 0.00in /  0mm
18:50 71.2 °F /  21.8 °C 55.7 °F /  13.2 °C 29.92in /  1013.1hPa North 4.0mph /  6.4km/h 6.0mph /  9.7km/h 58% 0.00in /  0mm
18:55 71.5 °F /  21.9 °C 55.5 °F /  13.1 °C 29.92in /  1013.1hPa North 3.0mph /  4.8km/h 5.0mph /  8km/h 57% 0.00in /  0mm
19:00 71.4 °F /  21.9 °C 55.4 °F /  13 °C 29.92in /  1013.1hPa North 5.0mph /  8km/h 6.0mph /  9.7km/h 57% 0.00in /  0mm
19:05 71.2 °F /  21.8 °C 55.7 °F /  13.2 °C 29.92in /  1013.1hPa North 5.0mph /  8km/h 5.0mph /  8km/h 58% 0.00in /  0mm
19:10 70.7 °F /  21.5 °C 55.2 °F /  12.9 °C 29.92in /  1013.1hPa NNW 4.0mph /  6.4km/h 6.0mph /  9.7km/h 58% 0.00in /  0mm
19:15 70.4 °F /  21.3 °C 55.4 °F /  13 °C 29.92in /  1013.1hPa NNE 2.0mph /  3.2km/h 7.0mph /  11.3km/h 59% 0.00in /  0mm
19:16 70.4 °F /  21.3 °C 55.4 °F /  13 °C 29.92in /  1013.1hPa NNW 3.0mph /  4.8km/h 7.0mph /  11.3km/h 59% 0.00in /  0mm
19:21 70.3 °F /  21.3 °C 54.8 °F /  12.7 °C 29.92in /  1013.1hPa North 5.0mph /  8km/h 5.0mph /  8km/h 58% 0.00in /  0mm
19:26 70.3 °F /  21.3 °C 55.8 °F /  13.2 °C 29.92in /  1013.1hPa North 1.0mph /  1.6km/h 3.0mph /  4.8km/h 60% 0.00in /  0mm
19:31 70.1 °F /  21.2 °C 55.6 °F /  13.1 °C 29.92in /  1013.1hPa North 2.0mph /  3.2km/h 3.0mph /  4.8km/h 60% 0.00in /  0mm
19:36 69.7 °F /  20.9 °C 55.7 °F /  13.2 °C 29.92in /  1013.1hPa North 2.0mph /  3.2km/h 4.0mph /  6.4km/h 61% 0.00in /  0mm
19:41 69.3 °F /  20.7 °C 55.3 °F /  12.9 °C 29.93in /  1013.4hPa North 2.0mph /  3.2km/h 4.0mph /  6.4km/h 61% 0.00in /  0mm
19:46 68.9 °F /  20.5 °C 54.9 °F /  12.7 °C 29.93in /  1013.4hPa NW 1.0mph /  1.6km/h 3.0mph /  4.8km/h 61% 0.00in /  0mm
19:51 68.4 °F /  20.2 °C 54.9 °F /  12.7 °C 29.92in /  1013.1hPa NNW 2.0mph /  3.2km/h 4.0mph /  6.4km/h 62% 0.00in /  0mm
19:56 68.0 °F /  20 °C 55.0 °F /  12.8 °C 29.93in /  1013.4hPa North 2.0mph /  3.2km/h 4.0mph /  6.4km/h 63% 0.00in /  0mm
20:01 67.7 °F /  19.8 °C 54.7 °F /  12.6 °C 29.93in /  1013.4hPa NNE 3.0mph /  4.8km/h 3.0mph /  4.8km/h 63% 0.00in /  0mm
20:06 67.4 °F /  19.7 °C 54.4 °F /  12.4 °C 29.93in /  1013.4hPa NNW 3.0mph /  4.8km/h 3.0mph /  4.8km/h 63% 0.00in /  0mm
20:11 67.3 °F /  19.6 °C 54.3 °F /  12.4 °C 29.93in /  1013.4hPa NNW 2.0mph /  3.2km/h 3.0mph /  4.8km/h 63% 0.00in /  0mm
20:17 67.1 °F /  19.5 °C 54.1 °F /  12.3 °C 29.93in /  1013.4hPa NNW 2.0mph /  3.2km/h 4.0mph /  6.4km/h 63% 0.00in /  0mm
20:22 66.9 °F /  19.4 °C 53.9 °F /  12.2 °C 29.93in /  1013.4hPa NNW 2.0mph /  3.2km/h 2.0mph /  3.2km/h 63% 0.00in /  0mm
20:27 66.6 °F /  19.2 °C 54.1 °F /  12.3 °C 29.93in /  1013.4hPa North 2.0mph /  3.2km/h 4.0mph /  6.4km/h 64% 0.00in /  0mm
20:32 66.3 °F /  19.1 °C 53.8 °F /  12.1 °C 29.93in /  1013.4hPa NNW 2.0mph /  3.2km/h 2.0mph /  3.2km/h 64% 0.00in /  0mm
20:37 66.0 °F /  18.9 °C 53.9 °F /  12.2 °C 29.94in /  1013.8hPa North 1.0mph /  1.6km/h 3.0mph /  4.8km/h 65% 0.00in /  0mm
20:42 65.8 °F /  18.8 °C 53.7 °F /  12.1 °C 29.94in /  1013.8hPa North 3.0mph /  4.8km/h 3.0mph /  4.8km/h 65% 0.00in /  0mm
20:47 65.7 °F /  18.7 °C 53.6 °F /  12 °C 29.94in /  1013.8hPa NNW 2.0mph /  3.2km/h 4.0mph /  6.4km/h 65% 0.00in /  0mm
20:52 65.7 °F /  18.7 °C 53.6 °F /  12 °C 29.94in /  1013.8hPa NNW 3.0mph /  4.8km/h 3.0mph /  4.8km/h 65% 0.00in /  0mm
20:57 65.6 °F /  18.7 °C 53.5 °F /  11.9 °C 29.95in /  1014.1hPa North 2.0mph /  3.2km/h 4.0mph /  6.4km/h 65% 0.00in /  0mm
21:02 65.2 °F /  18.4 °C 53.6 °F /  12 °C 29.94in /  1013.8hPa NNW 2.0mph /  3.2km/h 3.0mph /  4.8km/h 66% 0.00in /  0mm
21:07 65.0 °F /  18.3 °C 53.4 °F /  11.9 °C 29.95in /  1014.1hPa North 2.0mph /  3.2km/h 4.0mph /  6.4km/h 66% 0.00in /  0mm
21:12 64.8 °F /  18.2 °C 53.6 °F /  12 °C 29.95in /  1014.1hPa NNW 4.0mph /  6.4km/h 4.0mph /  6.4km/h 67% 0.00in /  0mm
21:17 64.7 °F /  18.2 °C 53.5 °F /  11.9 °C 29.95in /  1014.1hPa NNW 2.0mph /  3.2km/h 3.0mph /  4.8km/h 67% 0.00in /  0mm
21:22 64.5 °F /  18.1 °C 53.7 °F /  12.1 °C 29.95in /  1014.1hPa NNW 4.0mph /  6.4km/h 4.0mph /  6.4km/h 68% 0.00in /  0mm
21:27 63.9 °F /  17.7 °C 53.5 °F /  11.9 °C 29.96in /  1014.4hPa NNE 1.0mph /  1.6km/h 3.0mph /  4.8km/h 69% 0.00in /  0mm
21:32 63.7 °F /  17.6 °C 53.7 °F /  12.1 °C 29.96in /  1014.4hPa North 4.0mph /  6.4km/h 5.0mph /  8km/h 70% 0.00in /  0mm
21:37 63.6 °F /  17.6 °C 53.7 °F /  12.1 °C 29.96in /  1014.4hPa North 4.0mph /  6.4km/h 6.0mph /  9.7km/h 70% 0.00in /  0mm
21:42 63.5 °F /  17.5 °C 53.5 °F /  11.9 °C 29.97in /  1014.8hPa NNW 3.0mph /  4.8km/h 6.0mph /  9.7km/h 70% 0.00in /  0mm
21:47 63.4 °F /  17.4 °C 53.5 °F /  11.9 °C 29.97in /  1014.8hPa NNW 6.0mph /  9.7km/h 7.0mph /  11.3km/h 70% 0.00in /  0mm
21:53 63.2 °F /  17.3 °C 53.7 °F /  12.1 °C 29.97in /  1014.8hPa NNE 6.0mph /  9.7km/h 6.0mph /  9.7km/h 71% 0.00in /  0mm
21:58 62.8 °F /  17.1 °C 54.0 °F /  12.2 °C 29.97in /  1014.8hPa North 5.0mph /  8km/h 7.0mph /  11.3km/h 73% 0.00in /  0mm
22:03 62.4 °F /  16.9 °C 54.0 °F /  12.2 °C 29.97in /  1014.8hPa NNW 4.0mph /  6.4km/h 5.0mph /  8km/h 74% 0.00in /  0mm
22:08 62.2 °F /  16.8 °C 54.2 °F /  12.3 °C 29.97in /  1014.8hPa NNW 4.0mph /  6.4km/h 7.0mph /  11.3km/h 75% 0.00in /  0mm
22:14 62.0 °F /  16.7 °C 54.4 °F /  12.4 °C 29.98in /  1015.1hPa NW 5.0mph /  8km/h 6.0mph /  9.7km/h 76% 0.00in /  0mm
22:19 62.0 °F /  16.7 °C 54.4 °F /  12.4 °C 29.98in /  1015.1hPa North 3.0mph /  4.8km/h 9.0mph /  14.5km/h 76% 0.00in /  0mm
22:24 61.9 °F /  16.6 °C 54.3 °F /  12.4 °C 29.98in /  1015.1hPa NNW 6.0mph /  9.7km/h 8.0mph /  12.9km/h 76% 0.00in /  0mm
22:29 61.8 °F /  16.6 °C 54.5 °F /  12.5 °C 29.99in /  1015.5hPa NNW 7.0mph /  11.3km/h 11.0mph /  17.7km/h 77% 0.00in /  0mm
22:34 61.8 °F /  16.6 °C 54.5 °F /  12.5 °C 29.99in /  1015.5hPa NNW 4.0mph /  6.4km/h 7.0mph /  11.3km/h 77% 0.00in /  0mm
22:39 61.7 °F /  16.5 °C 54.4 °F /  12.4 °C 29.99in /  1015.5hPa North 5.0mph /  8km/h 9.0mph /  14.5km/h 77% 0.00in /  0mm
22:44 61.6 °F /  16.4 °C 54.3 °F /  12.4 °C 29.99in /  1015.5hPa North 4.0mph /  6.4km/h 11.0mph /  17.7km/h 77% 0.00in /  0mm
22:49 61.4 °F /  16.3 °C 54.1 °F /  12.3 °C 29.99in /  1015.5hPa North 6.0mph /  9.7km/h 9.0mph /  14.5km/h 77% 0.00in /  0mm
22:54 61.2 °F /  16.2 °C 53.9 °F /  12.2 °C 29.99in /  1015.5hPa NNW 4.0mph /  6.4km/h 7.0mph /  11.3km/h 77% 0.00in /  0mm
22:59 61.0 °F /  16.1 °C 54.1 °F /  12.3 °C 30.00in /  1015.8hPa NNE 4.0mph /  6.4km/h 7.0mph /  11.3km/h 78% 0.00in /  0mm
23:04 60.8 °F /  16 °C 53.9 °F /  12.2 °C 30.00in /  1015.8hPa North 4.0mph /  6.4km/h 4.0mph /  6.4km/h 78% 0.00in /  0mm
23:09 60.5 °F /  15.8 °C 54.0 °F /  12.2 °C 30.00in /  1015.8hPa NNE 3.0mph /  4.8km/h 6.0mph /  9.7km/h 79% 0.00in /  0mm
23:15 60.2 °F /  15.7 °C 53.7 °F /  12.1 °C 30.00in /  1015.8hPa NNW 4.0mph /  6.4km/h 4.0mph /  6.4km/h 79% 0.00in /  0mm
23:20 59.9 °F /  15.5 °C 53.7 °F /  12.1 °C 30.00in /  1015.8hPa North 2.0mph /  3.2km/h 4.0mph /  6.4km/h 80% 0.00in /  0mm
23:25 59.6 °F /  15.3 °C 53.4 °F /  11.9 °C 30.00in /  1015.8hPa North 3.0mph /  4.8km/h 4.0mph /  6.4km/h 80% 0.00in /  0mm
23:30 59.3 °F /  15.2 °C 53.5 °F /  11.9 °C 30.00in /  1015.8hPa NNW 2.0mph /  3.2km/h 4.0mph /  6.4km/h 81% 0.00in /  0mm
23:35 59.2 °F /  15.1 °C 53.4 °F /  11.9 °C 30.00in /  1015.8hPa NNE 3.0mph /  4.8km/h 4.0mph /  6.4km/h 81% 0.00in /  0mm
23:40 59.1 °F /  15.1 °C 53.3 °F /  11.8 °C 30.00in /  1015.8hPa NNW 3.0mph /  4.8km/h 4.0mph /  6.4km/h 81% 0.00in /  0mm
23:45 59.0 °F /  15 °C 53.5 °F /  11.9 °C 30.00in /  1015.8hPa NNE 2.0mph /  3.2km/h 3.0mph /  4.8km/h 82% 0.00in /  0mm
23:46 59.0 °F /  15 °C 53.5 °F /  11.9 °C 30.00in /  1015.8hPa North 2.0mph /  3.2km/h 3.0mph /  4.8km/h 82% 0.00in /  0mm
23:51 58.7 °F /  14.8 °C 53.2 °F /  11.8 °C 30.00in /  1015.8hPa North 1.0mph /  1.6km/h 3.0mph /  4.8km/h 82% 0.00in /  0mm
23:56 58.6 °F /  14.8 °C 53.1 °F /  11.7 °C 30.00in /  1015.8hPa North 2.0mph /  3.2km/h 3.0mph /  4.8km/h 82% 0.00in /  0mm
Compliments of Weather Underground